createdAt,value
2024-01-24T00:04:14.498Z,27.86
2024-01-24T00:09:14.381Z,27.90
2024-01-24T00:14:14.428Z,27.91
2024-01-24T00:18:05.272Z,27.93
2024-01-24T00:23:05.290Z,27.95
2024-01-24T00:28:05.250Z,28.03
2024-01-24T00:33:31.440Z,28.04
2024-01-24T00:38:31.742Z,28.10
2024-01-24T00:43:31.460Z,28.05
2024-01-24T00:48:38.390Z,28.06
2024-01-24T00:53:38.295Z,28.16
2024-01-24T00:58:38.258Z,28.16
2024-01-24T01:03:17.018Z,28.22
2024-01-24T01:08:16.817Z,28.22
2024-01-24T01:13:16.821Z,28.23
2024-01-24T01:18:56.706Z,28.30
2024-01-24T01:23:56.702Z,28.29
2024-01-24T01:28:56.651Z,28.28
2024-01-24T01:34:15.709Z,28.29
2024-01-24T01:39:15.517Z,28.32
2024-01-24T01:44:15.592Z,28.37
2024-01-24T01:49:24.454Z,28.42
2024-01-24T01:54:24.474Z,28.40
2024-01-24T01:59:24.404Z,28.45
2024-01-24T02:04:22.939Z,28.38
2024-01-24T02:09:22.847Z,28.45
2024-01-24T02:14:22.824Z,28.42
2024-01-24T02:19:56.154Z,28.45
2024-01-24T02:24:56.074Z,28.50
2024-01-24T02:29:56.017Z,28.48
2024-01-24T02:35:28.768Z,28.55
2024-01-24T02:40:28.479Z,28.49
2024-01-24T02:45:28.473Z,28.57
2024-01-24T02:49:27.350Z,28.54
2024-01-24T02:54:27.321Z,28.57
2024-01-24T02:59:27.256Z,28.53
2024-01-24T03:05:50.756Z,28.59
2024-01-24T03:10:50.612Z,28.58
2024-01-24T03:15:50.682Z,28.57
2024-01-24T03:19:04.475Z,28.62
2024-01-24T03:24:04.387Z,28.59
2024-01-24T03:29:04.737Z,28.61
2024-01-24T03:34:30.040Z,28.60
2024-01-24T03:39:30.037Z,28.63
2024-01-24T03:44:30.002Z,28.61
2024-01-24T03:50:38.546Z,28.59
2024-01-24T03:55:38.498Z,28.56
2024-01-24T04:00:38.689Z,28.58
2024-01-24T04:05:23.549Z,28.62
2024-01-24T04:10:23.572Z,28.62
2024-01-24T04:15:23.790Z,28.62
2024-01-24T04:20:20.204Z,28.58
2024-01-24T04:25:20.250Z,28.58
2024-01-24T04:30:20.305Z,28.61
2024-01-24T04:35:57.814Z,28.56
2024-01-24T04:40:57.806Z,28.53
2024-01-24T04:45:57.812Z,28.61
2024-01-24T04:51:08.933Z,28.50
2024-01-24T04:56:08.815Z,28.55
2024-01-24T05:01:08.849Z,28.56
2024-01-24T05:05:58.490Z,28.58
2024-01-24T05:10:54.630Z,28.50
2024-01-24T05:15:54.801Z,28.54
2024-01-24T05:21:32.543Z,28.54
2024-01-24T05:26:32.485Z,28.57
2024-01-24T05:31:32.673Z,28.53
2024-01-24T05:37:01.377Z,28.53
2024-01-24T05:42:01.393Z,28.53
2024-01-24T05:47:01.338Z,28.52
2024-01-24T05:50:24.996Z,28.46
2024-01-24T05:55:25.004Z,28.54
2024-01-24T06:00:25.116Z,28.47
2024-01-24T06:06:43.505Z,28.44
2024-01-24T06:11:43.109Z,28.49
2024-01-24T06:16:43.168Z,28.51
2024-01-24T06:21:58.521Z,28.49
2024-01-24T06:26:58.543Z,28.43
2024-01-24T06:31:58.423Z,28.39
2024-01-24T06:36:29.881Z,28.48
2024-01-24T06:41:29.902Z,28.44
2024-01-24T06:46:29.980Z,28.45
2024-01-24T06:51:00.946Z,28.44
2024-01-24T06:56:01.001Z,28.44
2024-01-24T07:01:01.038Z,28.40
2024-01-24T07:06:47.514Z,28.42
2024-01-24T07:11:47.977Z,28.40
2024-01-24T07:16:47.560Z,28.41
2024-01-24T07:22:53.466Z,28.48
2024-01-24T07:27:53.518Z,28.46
2024-01-24T07:32:53.645Z,28.42
2024-01-24T07:36:31.952Z,28.48
2024-01-24T07:41:31.842Z,28.52
2024-01-24T07:46:31.915Z,28.51
2024-01-24T07:51:45.818Z,28.58
2024-01-24T07:56:45.750Z,28.55
2024-01-24T08:01:46.085Z,28.66
2024-01-24T08:08:16.295Z,28.58
2024-01-24T08:13:16.393Z,28.64
2024-01-24T08:18:16.303Z,28.57
2024-01-24T08:22:32.250Z,28.67
2024-01-24T08:27:32.435Z,28.71
2024-01-24T08:32:32.423Z,28.89
2024-01-24T08:39:08.720Z,28.96
2024-01-24T08:44:08.786Z,28.99
2024-01-24T08:49:08.932Z,28.95
2024-01-24T08:54:16.170Z,29.08
2024-01-24T08:59:16.025Z,29.09
2024-01-24T09:04:16.225Z,29.12
2024-01-24T09:08:55.961Z,29.23
2024-01-24T09:13:55.908Z,29.25
2024-01-24T09:18:56.044Z,29.37
2024-01-24T09:22:50.128Z,29.41
2024-01-24T09:27:50.293Z,29.47
2024-01-24T09:32:50.274Z,29.52
2024-01-24T09:37:56.118Z,29.56
2024-01-24T09:42:55.941Z,29.70
2024-01-24T09:47:55.974Z,29.78
2024-01-24T09:53:43.834Z,29.85
2024-01-24T09:58:43.679Z,29.96
2024-01-24T10:03:43.769Z,29.98
2024-01-24T10:09:14.341Z,30.02
2024-01-24T10:14:14.380Z,30.07
2024-01-24T10:19:14.483Z,30.15
2024-01-24T10:24:48.246Z,30.23
2024-01-24T10:29:48.332Z,30.29
2024-01-24T10:34:48.297Z,30.35
2024-01-24T10:38:30.801Z,30.43
2024-01-24T10:43:30.650Z,30.50
2024-01-24T10:48:30.702Z,30.61
2024-01-24T10:54:11.998Z,30.69
2024-01-24T10:59:12.063Z,30.71
2024-01-24T11:04:12.058Z,30.80
2024-01-24T11:08:35.852Z,30.88
2024-01-24T11:13:30.661Z,30.97
2024-01-24T11:18:30.791Z,31.06
2024-01-24T11:24:30.143Z,31.12
2024-01-24T11:29:30.016Z,31.23
2024-01-24T11:34:30.235Z,31.29
2024-01-24T11:38:50.861Z,31.33
2024-01-24T11:43:51.095Z,31.38
2024-01-24T11:48:50.984Z,31.48
2024-01-24T11:54:20.843Z,31.52
2024-01-24T11:59:20.820Z,31.61
2024-01-24T12:04:21.038Z,31.64
2024-01-24T12:10:12.014Z,31.70
2024-01-24T12:15:11.857Z,31.67
2024-01-24T12:20:11.977Z,31.73
2024-01-24T12:23:55.549Z,31.77
2024-01-24T12:28:55.479Z,31.79
2024-01-24T12:33:55.627Z,31.81
2024-01-24T12:39:42.382Z,31.85
2024-01-24T12:44:42.388Z,31.86
2024-01-24T12:49:42.772Z,32.00
2024-01-24T12:55:19.793Z,32.01
2024-01-24T13:00:19.885Z,32.13
2024-01-24T13:05:21.532Z,32.15
2024-01-24T13:10:46.191Z,32.23
2024-01-24T13:15:45.809Z,32.27
2024-01-24T13:20:45.651Z,32.32
2024-01-24T13:24:42.208Z,32.32
2024-01-24T13:29:42.006Z,32.41
2024-01-24T13:34:42.090Z,32.46
2024-01-24T13:41:00.103Z,32.47
2024-01-24T13:46:00.278Z,32.54
2024-01-24T13:51:00.466Z,32.58
2024-01-24T13:56:00.593Z,32.62
2024-01-24T14:01:00.589Z,32.62
2024-01-24T14:06:00.573Z,32.71
2024-01-24T14:09:55.831Z,32.74
2024-01-24T14:14:55.788Z,32.73
2024-01-24T14:19:55.853Z,32.77
2024-01-24T14:25:26.537Z,32.74
2024-01-24T14:30:26.464Z,32.79
2024-01-24T14:35:26.687Z,32.88
2024-01-24T14:41:59.826Z,32.84
2024-01-24T14:46:59.788Z,32.96
2024-01-24T14:51:59.864Z,32.99
2024-01-24T14:55:46.703Z,32.97
2024-01-24T15:00:46.720Z,32.92
2024-01-24T15:05:46.764Z,32.97
2024-01-24T15:10:45.775Z,33.03
2024-01-24T15:15:45.801Z,33.01
2024-01-24T15:20:49.692Z,33.01
2024-01-24T15:27:51.667Z,33.02
2024-01-24T15:32:51.662Z,33.04
2024-01-24T15:37:51.750Z,32.98
2024-01-24T15:41:19.579Z,33.00
2024-01-24T15:46:20.081Z,33.01
2024-01-24T15:51:19.749Z,32.95
2024-01-24T15:58:15.308Z,32.98
2024-01-24T16:03:15.083Z,32.93
2024-01-24T16:08:15.064Z,32.94
2024-01-24T16:11:38.194Z,32.90
2024-01-24T16:16:38.158Z,32.89
2024-01-24T16:21:38.135Z,32.88
2024-01-24T16:28:05.820Z,32.84
2024-01-24T16:33:05.946Z,32.91
2024-01-24T16:38:05.745Z,32.92
2024-01-24T16:42:51.227Z,32.93
2024-01-24T16:47:51.148Z,32.94
2024-01-24T16:52:51.150Z,32.83
2024-01-24T16:58:14.504Z,32.89
2024-01-24T17:03:14.491Z,32.84
2024-01-24T17:08:14.584Z,32.92
2024-01-24T17:13:22.296Z,32.92
2024-01-24T17:18:22.296Z,32.87
2024-01-24T17:23:22.349Z,32.85
2024-01-24T17:28:49.377Z,32.85
2024-01-24T17:33:49.466Z,32.86
2024-01-24T17:38:49.300Z,32.82
2024-01-24T17:42:21.767Z,32.81
2024-01-24T17:47:21.877Z,32.86
2024-01-24T17:52:21.884Z,32.82
2024-01-24T17:57:16.984Z,32.80
2024-01-24T18:02:16.945Z,32.82
2024-01-24T18:07:17.574Z,32.81
2024-01-24T18:13:23.327Z,32.83
2024-01-24T18:18:23.455Z,32.79
2024-01-24T18:23:23.375Z,32.81
2024-01-24T18:29:40.245Z,32.79
2024-01-24T18:34:40.010Z,32.76
2024-01-24T18:39:40.062Z,32.77
2024-01-24T18:42:52.515Z,32.80
2024-01-24T18:47:52.513Z,32.75
2024-01-24T18:52:52.655Z,32.79
2024-01-24T18:59:21.822Z,32.74
2024-01-24T19:04:21.871Z,32.69
2024-01-24T19:09:21.736Z,32.76
2024-01-24T19:14:11.944Z,32.77
2024-01-24T19:19:12.017Z,32.72
2024-01-24T19:24:11.882Z,32.77
2024-01-24T19:28:51.327Z,32.71
2024-01-24T19:33:51.439Z,32.65
2024-01-24T19:38:51.390Z,32.66
2024-01-24T19:45:01.732Z,32.67
2024-01-24T19:50:01.795Z,32.62
2024-01-24T19:55:01.892Z,32.64
2024-01-24T19:59:16.394Z,32.66
2024-01-24T20:04:16.040Z,32.66
2024-01-24T20:09:16.020Z,32.66
2024-01-24T20:13:25.604Z,32.64
2024-01-24T20:18:25.639Z,32.64
2024-01-24T20:23:27.209Z,32.72
2024-01-24T20:29:08.340Z,32.64
2024-01-24T20:34:08.423Z,32.63
2024-01-24T20:39:08.263Z,32.60
2024-01-24T20:44:00.220Z,32.58
2024-01-24T20:49:00.220Z,32.55
2024-01-24T20:54:00.041Z,32.50
2024-01-24T20:59:35.095Z,32.56
2024-01-24T21:04:35.042Z,32.51
2024-01-24T21:09:34.996Z,32.51
2024-01-24T21:14:02.776Z,32.46
2024-01-24T21:19:02.825Z,32.49
2024-01-24T21:24:02.749Z,32.47
2024-01-24T21:28:59.004Z,32.48
2024-01-24T21:33:57.984Z,32.47
2024-01-24T21:38:57.968Z,32.44
2024-01-24T21:45:36.436Z,32.45
2024-01-24T21:50:36.385Z,32.41
2024-01-24T21:55:36.443Z,32.42
2024-01-24T22:00:31.705Z,32.45
2024-01-24T22:05:31.546Z,32.45
2024-01-24T22:10:31.676Z,32.39
2024-01-24T22:14:28.083Z,32.40
2024-01-24T22:19:28.079Z,32.47
2024-01-24T22:24:28.170Z,32.43
2024-01-24T22:30:21.697Z,32.41
2024-01-24T22:35:21.859Z,32.49
2024-01-24T22:40:22.040Z,32.50
2024-01-24T22:45:44.268Z,32.50
2024-01-24T22:50:44.319Z,32.44
2024-01-24T22:55:44.203Z,32.46
2024-01-24T23:00:07.297Z,32.38
2024-01-24T23:05:07.251Z,32.40
2024-01-24T23:10:07.161Z,32.45
2024-01-24T23:15:36.216Z,32.46
2024-01-24T23:20:36.162Z,32.51
2024-01-24T23:25:36.126Z,32.45
2024-01-24T23:31:19.892Z,32.49
2024-01-24T23:36:19.744Z,32.51
2024-01-24T23:41:19.752Z,32.58
2024-01-24T23:46:54.039Z,32.52
2024-01-24T23:51:54.124Z,32.51
2024-01-24T23:56:53.916Z,32.53
